sensor_id;sensor_type;location;lat;lon;timestamp;P1;durP1;ratioP1;P2;durP2;ratioP2
12110;SDS011;6119;52.372;8.990;2023-02-15T00:00:24;15.57;;;8.60;;
12110;SDS011;6119;52.372;8.990;2023-02-15T00:03:12;12.87;;;8.67;;
12110;SDS011;6119;52.372;8.990;2023-02-15T00:06:01;14.17;;;8.37;;
12110;SDS011;6119;52.372;8.990;2023-02-15T00:08:48;14.00;;;8.73;;
12110;SDS011;6119;52.372;8.990;2023-02-15T00:11:35;11.97;;;8.03;;
12110;SDS011;6119;52.372;8.990;2023-02-15T00:14:34;10.50;;;7.60;;
12110;SDS011;6119;52.372;8.990;2023-02-15T00:17:21;12.80;;;8.30;;
12110;SDS011;6119;52.372;8.990;2023-02-15T00:20:09;11.53;;;8.43;;
12110;SDS011;6119;52.372;8.990;2023-02-15T00:22:56;12.37;;;7.80;;
12110;SDS011;6119;52.372;8.990;2023-02-15T00:25:42;14.13;;;7.97;;
12110;SDS011;6119;52.372;8.990;2023-02-15T00:28:29;12.47;;;7.90;;
12110;SDS011;6119;52.372;8.990;2023-02-15T00:31:16;11.97;;;7.73;;
12110;SDS011;6119;52.372;8.990;2023-02-15T00:34:03;10.70;;;8.10;;
12110;SDS011;6119;52.372;8.990;2023-02-15T00:36:52;11.57;;;7.40;;
12110;SDS011;6119;52.372;8.990;2023-02-15T00:39:39;9.80;;;7.13;;
12110;SDS011;6119;52.372;8.990;2023-02-15T00:42:25;10.37;;;7.63;;
12110;SDS011;6119;52.372;8.990;2023-02-15T00:45:12;11.77;;;7.33;;
12110;SDS011;6119;52.372;8.990;2023-02-15T00:48:01;10.50;;;7.13;;
12110;SDS011;6119;52.372;8.990;2023-02-15T00:50:48;10.63;;;7.27;;
12110;SDS011;6119;52.372;8.990;2023-02-15T00:53:38;11.73;;;8.27;;
12110;SDS011;6119;52.372;8.990;2023-02-15T00:56:24;11.03;;;7.70;;
12110;SDS011;6119;52.372;8.990;2023-02-15T00:59:13;10.07;;;6.93;;
12110;SDS011;6119;52.372;8.990;2023-02-15T01:01:59;10.63;;;7.20;;
12110;SDS011;6119;52.372;8.990;2023-02-15T01:04:46;10.23;;;7.43;;
12110;SDS011;6119;52.372;8.990;2023-02-15T01:07:32;11.70;;;7.63;;
12110;SDS011;6119;52.372;8.990;2023-02-15T01:10:20;11.00;;;7.63;;
12110;SDS011;6119;52.372;8.990;2023-02-15T01:13:06;11.60;;;8.37;;
12110;SDS011;6119;52.372;8.990;2023-02-15T01:15:53;13.43;;;8.00;;
12110;SDS011;6119;52.372;8.990;2023-02-15T01:18:40;9.77;;;7.57;;
12110;SDS011;6119;52.372;8.990;2023-02-15T01:21:27;10.77;;;7.57;;
12110;SDS011;6119;52.372;8.990;2023-02-15T01:24:14;9.70;;;7.10;;
12110;SDS011;6119;52.372;8.990;2023-02-15T01:27:02;10.50;;;7.17;;
12110;SDS011;6119;52.372;8.990;2023-02-15T01:29:49;12.50;;;7.87;;
12110;SDS011;6119;52.372;8.990;2023-02-15T01:32:35;11.57;;;8.30;;
12110;SDS011;6119;52.372;8.990;2023-02-15T01:35:21;11.23;;;7.67;;
12110;SDS011;6119;52.372;8.990;2023-02-15T01:38:08;11.80;;;7.53;;
12110;SDS011;6119;52.372;8.990;2023-02-15T01:40:54;11.27;;;7.60;;
12110;SDS011;6119;52.372;8.990;2023-02-15T01:47:23;7.97;;;6.70;;
12110;SDS011;6119;52.372;8.990;2023-02-15T01:50:16;10.40;;;7.23;;
12110;SDS011;6119;52.372;8.990;2023-02-15T01:53:06;9.00;;;7.13;;
12110;SDS011;6119;52.372;8.990;2023-02-15T01:55:59;8.73;;;6.67;;
12110;SDS011;6119;52.372;8.990;2023-02-15T01:58:51;9.80;;;6.90;;
12110;SDS011;6119;52.372;8.990;2023-02-15T02:01:42;9.63;;;6.90;;
12110;SDS011;6119;52.372;8.990;2023-02-15T02:04:31;10.33;;;7.53;;
12110;SDS011;6119;52.372;8.990;2023-02-15T02:07:26;10.03;;;7.30;;
12110;SDS011;6119;52.372;8.990;2023-02-15T02:10:16;11.17;;;7.57;;
12110;SDS011;6119;52.372;8.990;2023-02-15T02:13:05;8.97;;;6.93;;
12110;SDS011;6119;52.372;8.990;2023-02-15T02:15:53;13.37;;;7.27;;
12110;SDS011;6119;52.372;8.990;2023-02-15T02:18:49;12.97;;;7.10;;
12110;SDS011;6119;52.372;8.990;2023-02-15T02:25:22;9.73;;;6.60;;
12110;SDS011;6119;52.372;8.990;2023-02-15T02:28:35;9.93;;;6.67;;
12110;SDS011;6119;52.372;8.990;2023-02-15T02:31:43;11.40;;;7.27;;
12110;SDS011;6119;52.372;8.990;2023-02-15T02:34:48;8.67;;;6.37;;
12110;SDS011;6119;52.372;8.990;2023-02-15T02:37:43;10.70;;;6.93;;
12110;SDS011;6119;52.372;8.990;2023-02-15T02:40:35;10.23;;;6.83;;
12110;SDS011;6119;52.372;8.990;2023-02-15T02:43:31;9.63;;;6.80;;
12110;SDS011;6119;52.372;8.990;2023-02-15T02:46:22;8.00;;;6.23;;
12110;SDS011;6119;52.372;8.990;2023-02-15T02:49:14;11.77;;;6.93;;
12110;SDS011;6119;52.372;8.990;2023-02-15T02:52:03;10.57;;;7.07;;
12110;SDS011;6119;52.372;8.990;2023-02-15T02:54:51;11.40;;;6.37;;
12110;SDS011;6119;52.372;8.990;2023-02-15T02:57:39;9.50;;;6.83;;
12110;SDS011;6119;52.372;8.990;2023-02-15T03:00:32;12.53;;;7.07;;
12110;SDS011;6119;52.372;8.990;2023-02-15T03:03:23;11.17;;;7.10;;
12110;SDS011;6119;52.372;8.990;2023-02-15T03:06:14;12.13;;;7.03;;
12110;SDS011;6119;52.372;8.990;2023-02-15T03:09:06;11.13;;;7.17;;
12110;SDS011;6119;52.372;8.990;2023-02-15T03:11:59;10.37;;;6.67;;
12110;SDS011;6119;52.372;8.990;2023-02-15T03:14:46;13.27;;;8.17;;
12110;SDS011;6119;52.372;8.990;2023-02-15T03:17:37;9.60;;;6.47;;
12110;SDS011;6119;52.372;8.990;2023-02-15T03:20:29;11.53;;;7.20;;
12110;SDS011;6119;52.372;8.990;2023-02-15T03:23:18;12.93;;;7.30;;
12110;SDS011;6119;52.372;8.990;2023-02-15T03:26:08;11.57;;;7.13;;
12110;SDS011;6119;52.372;8.990;2023-02-15T03:28:56;12.73;;;7.47;;
12110;SDS011;6119;52.372;8.990;2023-02-15T03:31:45;10.90;;;7.77;;
12110;SDS011;6119;52.372;8.990;2023-02-15T03:34:35;12.47;;;7.20;;
12110;SDS011;6119;52.372;8.990;2023-02-15T03:37:23;11.60;;;7.57;;
12110;SDS011;6119;52.372;8.990;2023-02-15T03:40:14;10.00;;;7.23;;
12110;SDS011;6119;52.372;8.990;2023-02-15T03:43:26;10.57;;;7.17;;
12110;SDS011;6119;52.372;8.990;2023-02-15T03:46:20;12.70;;;7.30;;
12110;SDS011;6119;52.372;8.990;2023-02-15T03:49:15;11.87;;;7.40;;
12110;SDS011;6119;52.372;8.990;2023-02-15T03:52:06;10.37;;;6.97;;
12110;SDS011;6119;52.372;8.990;2023-02-15T03:54:56;11.23;;;7.13;;
12110;SDS011;6119;52.372;8.990;2023-02-15T03:57:43;10.43;;;7.07;;
12110;SDS011;6119;52.372;8.990;2023-02-15T04:00:51;9.70;;;6.63;;
12110;SDS011;6119;52.372;8.990;2023-02-15T04:04:03;11.80;;;7.50;;
12110;SDS011;6119;52.372;8.990;2023-02-15T04:06:53;10.70;;;6.43;;
12110;SDS011;6119;52.372;8.990;2023-02-15T04:09:40;10.83;;;7.33;;
12110;SDS011;6119;52.372;8.990;2023-02-15T04:12:44;10.77;;;6.80;;
12110;SDS011;6119;52.372;8.990;2023-02-15T04:15:30;9.07;;;6.47;;
12110;SDS011;6119;52.372;8.990;2023-02-15T04:18:37;9.27;;;6.57;;
12110;SDS011;6119;52.372;8.990;2023-02-15T04:21:43;10.97;;;6.97;;
12110;SDS011;6119;52.372;8.990;2023-02-15T04:24:47;8.43;;;6.13;;
12110;SDS011;6119;52.372;8.990;2023-02-15T04:27:51;9.13;;;6.43;;
12110;SDS011;6119;52.372;8.990;2023-02-15T04:30:39;10.03;;;6.50;;
12110;SDS011;6119;52.372;8.990;2023-02-15T04:33:25;10.50;;;6.37;;
12110;SDS011;6119;52.372;8.990;2023-02-15T04:36:13;9.53;;;6.33;;
12110;SDS011;6119;52.372;8.990;2023-02-15T04:39:00;11.00;;;6.87;;
12110;SDS011;6119;52.372;8.990;2023-02-15T04:41:47;9.43;;;6.37;;
12110;SDS011;6119;52.372;8.990;2023-02-15T04:44:33;11.77;;;6.73;;
12110;SDS011;6119;52.372;8.990;2023-02-15T04:47:19;8.67;;;6.40;;
12110;SDS011;6119;52.372;8.990;2023-02-15T04:50:07;9.20;;;6.00;;
12110;SDS011;6119;52.372;8.990;2023-02-15T04:52:55;9.23;;;6.40;;
12110;SDS011;6119;52.372;8.990;2023-02-15T04:55:41;8.83;;;6.13;;
12110;SDS011;6119;52.372;8.990;2023-02-15T04:58:28;8.27;;;5.73;;
12110;SDS011;6119;52.372;8.990;2023-02-15T05:01:14;10.57;;;6.20;;
12110;SDS011;6119;52.372;8.990;2023-02-15T05:04:01;9.27;;;6.53;;
12110;SDS011;6119;52.372;8.990;2023-02-15T05:06:48;9.10;;;5.47;;
12110;SDS011;6119;52.372;8.990;2023-02-15T05:09:36;8.80;;;6.03;;
12110;SDS011;6119;52.372;8.990;2023-02-15T05:12:22;8.30;;;5.87;;
12110;SDS011;6119;52.372;8.990;2023-02-15T05:15:09;11.67;;;6.57;;
12110;SDS011;6119;52.372;8.990;2023-02-15T05:17:56;10.57;;;6.60;;
12110;SDS011;6119;52.372;8.990;2023-02-15T05:20:42;9.60;;;6.47;;
12110;SDS011;6119;52.372;8.990;2023-02-15T05:23:29;11.33;;;6.70;;
12110;SDS011;6119;52.372;8.990;2023-02-15T05:26:18;9.33;;;6.67;;
12110;SDS011;6119;52.372;8.990;2023-02-15T05:29:23;12.27;;;7.10;;
12110;SDS011;6119;52.372;8.990;2023-02-15T05:32:12;9.40;;;6.50;;
12110;SDS011;6119;52.372;8.990;2023-02-15T05:34:59;10.63;;;6.67;;
12110;SDS011;6119;52.372;8.990;2023-02-15T05:37:45;7.53;;;5.67;;
12110;SDS011;6119;52.372;8.990;2023-02-15T05:40:32;10.47;;;6.53;;
12110;SDS011;6119;52.372;8.990;2023-02-15T05:43:20;10.90;;;6.70;;
12110;SDS011;6119;52.372;8.990;2023-02-15T05:46:07;9.43;;;6.80;;
12110;SDS011;6119;52.372;8.990;2023-02-15T05:48:54;10.63;;;6.97;;
12110;SDS011;6119;52.372;8.990;2023-02-15T05:51:40;11.90;;;7.17;;
12110;SDS011;6119;52.372;8.990;2023-02-15T05:54:27;11.20;;;6.90;;
12110;SDS011;6119;52.372;8.990;2023-02-15T05:57:14;8.67;;;6.57;;
12110;SDS011;6119;52.372;8.990;2023-02-15T06:00:02;9.83;;;6.33;;
12110;SDS011;6119;52.372;8.990;2023-02-15T06:02:49;8.10;;;5.73;;
12110;SDS011;6119;52.372;8.990;2023-02-15T06:05:35;11.33;;;7.10;;
12110;SDS011;6119;52.372;8.990;2023-02-15T06:08:22;11.87;;;7.47;;
12110;SDS011;6119;52.372;8.990;2023-02-15T06:11:08;12.97;;;8.07;;
12110;SDS011;6119;52.372;8.990;2023-02-15T06:13:55;12.83;;;8.03;;
12110;SDS011;6119;52.372;8.990;2023-02-15T06:16:43;11.57;;;7.70;;
12110;SDS011;6119;52.372;8.990;2023-02-15T06:19:30;12.00;;;7.40;;
12110;SDS011;6119;52.372;8.990;2023-02-15T06:22:16;11.60;;;7.37;;
12110;SDS011;6119;52.372;8.990;2023-02-15T06:25:03;14.23;;;8.67;;
12110;SDS011;6119;52.372;8.990;2023-02-15T06:27:50;14.00;;;7.90;;
12110;SDS011;6119;52.372;8.990;2023-02-15T06:30:36;13.33;;;8.20;;
12110;SDS011;6119;52.372;8.990;2023-02-15T06:33:24;18.17;;;11.50;;
12110;SDS011;6119;52.372;8.990;2023-02-15T06:36:11;16.47;;;9.63;;
12110;SDS011;6119;52.372;8.990;2023-02-15T06:38:58;13.67;;;9.10;;
12110;SDS011;6119;52.372;8.990;2023-02-15T06:41:44;15.00;;;9.30;;
12110;SDS011;6119;52.372;8.990;2023-02-15T06:44:31;14.80;;;9.43;;
12110;SDS011;6119;52.372;8.990;2023-02-15T06:47:17;13.67;;;9.10;;
12110;SDS011;6119;52.372;8.990;2023-02-15T06:50:06;13.97;;;8.83;;
12110;SDS011;6119;52.372;8.990;2023-02-15T06:52:55;14.93;;;9.30;;
12110;SDS011;6119;52.372;8.990;2023-02-15T06:55:42;12.97;;;8.10;;
12110;SDS011;6119;52.372;8.990;2023-02-15T06:58:29;13.27;;;8.23;;
12110;SDS011;6119;52.372;8.990;2023-02-15T07:01:15;17.43;;;9.90;;
12110;SDS011;6119;52.372;8.990;2023-02-15T07:04:02;14.60;;;9.57;;
12110;SDS011;6119;52.372;8.990;2023-02-15T07:06:50;16.67;;;9.03;;
12110;SDS011;6119;52.372;8.990;2023-02-15T07:09:38;15.57;;;9.10;;
12110;SDS011;6119;52.372;8.990;2023-02-15T07:12:24;14.53;;;9.00;;
12110;SDS011;6119;52.372;8.990;2023-02-15T07:15:30;14.10;;;9.33;;
12110;SDS011;6119;52.372;8.990;2023-02-15T07:18:16;14.63;;;9.50;;
12110;SDS011;6119;52.372;8.990;2023-02-15T07:21:03;13.27;;;8.43;;
12110;SDS011;6119;52.372;8.990;2023-02-15T07:23:55;14.20;;;9.40;;
12110;SDS011;6119;52.372;8.990;2023-02-15T07:26:42;14.80;;;8.73;;
12110;SDS011;6119;52.372;8.990;2023-02-15T07:29:29;15.40;;;9.67;;
12110;SDS011;6119;52.372;8.990;2023-02-15T07:32:15;13.83;;;8.93;;
12110;SDS011;6119;52.372;8.990;2023-02-15T07:35:02;13.70;;;8.93;;
12110;SDS011;6119;52.372;8.990;2023-02-15T07:37:48;15.57;;;9.03;;
12110;SDS011;6119;52.372;8.990;2023-02-15T07:40:36;14.67;;;9.33;;
12110;SDS011;6119;52.372;8.990;2023-02-15T07:43:23;12.47;;;8.43;;
12110;SDS011;6119;52.372;8.990;2023-02-15T07:46:10;13.30;;;8.43;;
12110;SDS011;6119;52.372;8.990;2023-02-15T07:48:58;12.70;;;8.07;;
12110;SDS011;6119;52.372;8.990;2023-02-15T07:51:44;15.00;;;9.33;;
12110;SDS011;6119;52.372;8.990;2023-02-15T07:54:30;14.57;;;9.53;;
12110;SDS011;6119;52.372;8.990;2023-02-15T07:57:19;12.70;;;8.13;;
12110;SDS011;6119;52.372;8.990;2023-02-15T08:00:06;15.27;;;9.03;;
12110;SDS011;6119;52.372;8.990;2023-02-15T08:02:54;14.60;;;9.03;;
12110;SDS011;6119;52.372;8.990;2023-02-15T08:06:00;14.43;;;8.97;;
12110;SDS011;6119;52.372;8.990;2023-02-15T08:08:47;15.03;;;8.57;;
12110;SDS011;6119;52.372;8.990;2023-02-15T08:11:34;12.60;;;7.90;;
12110;SDS011;6119;52.372;8.990;2023-02-15T08:14:27;14.80;;;8.83;;
12110;SDS011;6119;52.372;8.990;2023-02-15T08:17:13;14.87;;;9.27;;
12110;SDS011;6119;52.372;8.990;2023-02-15T08:20:00;12.33;;;8.33;;
12110;SDS011;6119;52.372;8.990;2023-02-15T08:22:47;12.67;;;8.93;;
12110;SDS011;6119;52.372;8.990;2023-02-15T08:25:33;11.70;;;7.90;;
12110;SDS011;6119;52.372;8.990;2023-02-15T08:28:20;12.70;;;8.93;;
12110;SDS011;6119;52.372;8.990;2023-02-15T08:31:08;13.90;;;9.03;;
12110;SDS011;6119;52.372;8.990;2023-02-15T08:33:56;12.90;;;7.90;;
12110;SDS011;6119;52.372;8.990;2023-02-15T08:36:43;11.90;;;8.13;;
12110;SDS011;6119;52.372;8.990;2023-02-15T08:39:30;15.97;;;7.73;;
12110;SDS011;6119;52.372;8.990;2023-02-15T08:42:17;15.13;;;8.27;;
12110;SDS011;6119;52.372;8.990;2023-02-15T08:45:05;11.53;;;7.80;;
12110;SDS011;6119;52.372;8.990;2023-02-15T08:47:53;11.43;;;7.37;;
12110;SDS011;6119;52.372;8.990;2023-02-15T08:50:40;11.33;;;8.27;;
12110;SDS011;6119;52.372;8.990;2023-02-15T08:53:28;11.60;;;7.37;;
12110;SDS011;6119;52.372;8.990;2023-02-15T08:56:15;11.03;;;7.57;;
12110;SDS011;6119;52.372;8.990;2023-02-15T08:59:03;13.47;;;7.97;;
12110;SDS011;6119;52.372;8.990;2023-02-15T09:01:51;13.43;;;7.70;;
12110;SDS011;6119;52.372;8.990;2023-02-15T09:04:39;11.27;;;7.80;;
12110;SDS011;6119;52.372;8.990;2023-02-15T09:07:25;12.30;;;7.30;;
12110;SDS011;6119;52.372;8.990;2023-02-15T09:10:13;11.37;;;7.67;;
12110;SDS011;6119;52.372;8.990;2023-02-15T09:13:00;11.40;;;7.53;;
12110;SDS011;6119;52.372;8.990;2023-02-15T09:15:46;11.93;;;8.03;;
12110;SDS011;6119;52.372;8.990;2023-02-15T09:18:33;11.93;;;8.03;;
12110;SDS011;6119;52.372;8.990;2023-02-15T09:21:23;11.27;;;7.50;;
12110;SDS011;6119;52.372;8.990;2023-02-15T09:24:12;11.37;;;7.40;;
12110;SDS011;6119;52.372;8.990;2023-02-15T09:26:59;12.00;;;7.33;;
12110;SDS011;6119;52.372;8.990;2023-02-15T09:29:46;11.33;;;7.83;;
12110;SDS011;6119;52.372;8.990;2023-02-15T09:32:32;11.73;;;7.40;;
12110;SDS011;6119;52.372;8.990;2023-02-15T09:35:19;9.60;;;7.43;;
12110;SDS011;6119;52.372;8.990;2023-02-15T09:38:07;11.07;;;7.40;;
12110;SDS011;6119;52.372;8.990;2023-02-15T09:40:56;11.40;;;7.47;;
12110;SDS011;6119;52.372;8.990;2023-02-15T09:43:55;10.53;;;7.87;;
12110;SDS011;6119;52.372;8.990;2023-02-15T09:47:00;10.73;;;7.00;;
12110;SDS011;6119;52.372;8.990;2023-02-15T09:50:02;11.70;;;7.33;;
12110;SDS011;6119;52.372;8.990;2023-02-15T09:53:00;11.13;;;7.00;;
12110;SDS011;6119;52.372;8.990;2023-02-15T09:56:10;10.13;;;6.83;;
12110;SDS011;6119;52.372;8.990;2023-02-15T09:59:06;10.40;;;6.90;;
12110;SDS011;6119;52.372;8.990;2023-02-15T10:02:06;11.63;;;7.33;;
12110;SDS011;6119;52.372;8.990;2023-02-15T10:05:10;11.37;;;7.43;;
12110;SDS011;6119;52.372;8.990;2023-02-15T10:08:13;9.23;;;6.77;;
12110;SDS011;6119;52.372;8.990;2023-02-15T10:11:33;9.53;;;7.17;;
12110;SDS011;6119;52.372;8.990;2023-02-15T10:14:45;9.80;;;7.07;;
12110;SDS011;6119;52.372;8.990;2023-02-15T10:18:04;9.03;;;6.33;;
12110;SDS011;6119;52.372;8.990;2023-02-15T10:21:08;10.63;;;7.13;;
12110;SDS011;6119;52.372;8.990;2023-02-15T10:24:22;10.20;;;6.50;;
12110;SDS011;6119;52.372;8.990;2023-02-15T10:27:29;11.87;;;7.37;;
12110;SDS011;6119;52.372;8.990;2023-02-15T10:30:22;9.03;;;5.93;;
12110;SDS011;6119;52.372;8.990;2023-02-15T10:33:26;10.13;;;6.80;;
12110;SDS011;6119;52.372;8.990;2023-02-15T10:36:26;14.80;;;7.40;;
12110;SDS011;6119;52.372;8.990;2023-02-15T10:39:25;7.70;;;6.13;;
12110;SDS011;6119;52.372;8.990;2023-02-15T10:42:17;10.20;;;6.87;;
12110;SDS011;6119;52.372;8.990;2023-02-15T10:45:15;10.60;;;7.30;;
12110;SDS011;6119;52.372;8.990;2023-02-15T10:48:24;12.17;;;7.13;;
12110;SDS011;6119;52.372;8.990;2023-02-15T10:51:26;9.87;;;6.87;;
12110;SDS011;6119;52.372;8.990;2023-02-15T10:54:25;10.63;;;6.70;;
12110;SDS011;6119;52.372;8.990;2023-02-15T10:57:22;11.47;;;7.50;;
12110;SDS011;6119;52.372;8.990;2023-02-15T11:00:13;11.47;;;7.43;;
12110;SDS011;6119;52.372;8.990;2023-02-15T11:03:20;9.77;;;6.90;;
12110;SDS011;6119;52.372;8.990;2023-02-15T11:06:15;11.00;;;7.60;;
12110;SDS011;6119;52.372;8.990;2023-02-15T11:09:07;11.70;;;7.00;;
12110;SDS011;6119;52.372;8.990;2023-02-15T11:11:57;9.97;;;6.83;;
12110;SDS011;6119;52.372;8.990;2023-02-15T11:14:46;11.67;;;7.60;;
12110;SDS011;6119;52.372;8.990;2023-02-15T11:17:41;9.50;;;6.70;;
12110;SDS011;6119;52.372;8.990;2023-02-15T11:20:35;9.83;;;6.93;;
12110;SDS011;6119;52.372;8.990;2023-02-15T11:23:27;11.60;;;7.23;;
12110;SDS011;6119;52.372;8.990;2023-02-15T11:26:15;10.20;;;6.93;;
12110;SDS011;6119;52.372;8.990;2023-02-15T11:29:07;10.40;;;6.73;;
12110;SDS011;6119;52.372;8.990;2023-02-15T11:31:59;11.90;;;7.30;;
12110;SDS011;6119;52.372;8.990;2023-02-15T11:34:51;9.37;;;6.97;;
12110;SDS011;6119;52.372;8.990;2023-02-15T11:37:43;10.60;;;7.20;;
12110;SDS011;6119;52.372;8.990;2023-02-15T11:40:33;11.57;;;7.27;;
12110;SDS011;6119;52.372;8.990;2023-02-15T11:43:23;10.73;;;7.17;;
12110;SDS011;6119;52.372;8.990;2023-02-15T11:46:13;10.50;;;6.73;;
12110;SDS011;6119;52.372;8.990;2023-02-15T11:49:00;11.53;;;7.53;;
12110;SDS011;6119;52.372;8.990;2023-02-15T11:51:49;10.20;;;6.70;;
12110;SDS011;6119;52.372;8.990;2023-02-15T11:54:37;11.00;;;7.43;;
12110;SDS011;6119;52.372;8.990;2023-02-15T11:57:27;10.83;;;7.37;;
12110;SDS011;6119;52.372;8.990;2023-02-15T12:00:23;10.37;;;6.90;;
12110;SDS011;6119;52.372;8.990;2023-02-15T12:03:21;11.47;;;7.17;;
12110;SDS011;6119;52.372;8.990;2023-02-15T12:06:16;11.80;;;7.47;;
12110;SDS011;6119;52.372;8.990;2023-02-15T12:09:13;14.20;;;8.23;;
12110;SDS011;6119;52.372;8.990;2023-02-15T12:12:20;12.47;;;8.07;;
12110;SDS011;6119;52.372;8.990;2023-02-15T12:15:09;12.50;;;7.43;;
12110;SDS011;6119;52.372;8.990;2023-02-15T12:17:57;10.10;;;7.20;;
12110;SDS011;6119;52.372;8.990;2023-02-15T12:20:44;14.23;;;8.07;;
12110;SDS011;6119;52.372;8.990;2023-02-15T12:23:30;13.77;;;7.33;;
12110;SDS011;6119;52.372;8.990;2023-02-15T12:26:24;15.23;;;8.53;;
12110;SDS011;6119;52.372;8.990;2023-02-15T12:29:12;12.17;;;8.07;;
12110;SDS011;6119;52.372;8.990;2023-02-15T12:32:02;11.87;;;7.87;;
12110;SDS011;6119;52.372;8.990;2023-02-15T12:34:50;11.80;;;7.93;;
12110;SDS011;6119;52.372;8.990;2023-02-15T12:37:40;10.73;;;7.83;;
12110;SDS011;6119;52.372;8.990;2023-02-15T12:40:39;11.80;;;8.23;;
12110;SDS011;6119;52.372;8.990;2023-02-15T12:43:29;12.10;;;8.47;;
12110;SDS011;6119;52.372;8.990;2023-02-15T12:46:20;10.27;;;7.13;;
12110;SDS011;6119;52.372;8.990;2023-02-15T12:49:14;13.60;;;7.73;;
12110;SDS011;6119;52.372;8.990;2023-02-15T12:52:05;11.77;;;7.87;;
12110;SDS011;6119;52.372;8.990;2023-02-15T12:55:17;10.47;;;7.13;;
12110;SDS011;6119;52.372;8.990;2023-02-15T12:58:06;12.67;;;8.40;;
12110;SDS011;6119;52.372;8.990;2023-02-15T13:01:10;13.93;;;7.80;;
12110;SDS011;6119;52.372;8.990;2023-02-15T13:04:01;15.13;;;7.73;;
12110;SDS011;6119;52.372;8.990;2023-02-15T13:06:50;13.07;;;8.17;;
12110;SDS011;6119;52.372;8.990;2023-02-15T13:09:38;11.27;;;7.87;;
12110;SDS011;6119;52.372;8.990;2023-02-15T13:12:26;10.60;;;7.37;;
12110;SDS011;6119;52.372;8.990;2023-02-15T13:15:22;14.10;;;8.03;;
12110;SDS011;6119;52.372;8.990;2023-02-15T13:18:18;12.10;;;7.63;;
12110;SDS011;6119;52.372;8.990;2023-02-15T13:21:15;11.73;;;7.60;;
12110;SDS011;6119;52.372;8.990;2023-02-15T13:24:05;13.43;;;8.40;;
12110;SDS011;6119;52.372;8.990;2023-02-15T13:26:59;12.30;;;7.57;;
12110;SDS011;6119;52.372;8.990;2023-02-15T13:30:00;11.83;;;7.43;;
12110;SDS011;6119;52.372;8.990;2023-02-15T13:32:55;11.97;;;8.17;;
12110;SDS011;6119;52.372;8.990;2023-02-15T13:35:47;12.83;;;7.87;;
12110;SDS011;6119;52.372;8.990;2023-02-15T13:38:46;12.13;;;8.13;;
12110;SDS011;6119;52.372;8.990;2023-02-15T13:41:42;15.50;;;8.20;;
12110;SDS011;6119;52.372;8.990;2023-02-15T13:44:44;15.00;;;8.57;;
12110;SDS011;6119;52.372;8.990;2023-02-15T13:47:47;12.80;;;8.03;;
12110;SDS011;6119;52.372;8.990;2023-02-15T13:50:43;14.17;;;8.33;;
12110;SDS011;6119;52.372;8.990;2023-02-15T13:53:46;12.47;;;8.30;;
12110;SDS011;6119;52.372;8.990;2023-02-15T13:56:47;13.50;;;8.47;;
12110;SDS011;6119;52.372;8.990;2023-02-15T13:59:51;12.97;;;8.67;;
12110;SDS011;6119;52.372;8.990;2023-02-15T14:02:54;18.70;;;8.67;;
12110;SDS011;6119;52.372;8.990;2023-02-15T14:06:09;12.47;;;8.47;;
12110;SDS011;6119;52.372;8.990;2023-02-15T14:09:10;13.97;;;7.77;;
12110;SDS011;6119;52.372;8.990;2023-02-15T14:12:11;14.80;;;8.70;;
12110;SDS011;6119;52.372;8.990;2023-02-15T14:15:18;14.07;;;8.90;;
12110;SDS011;6119;52.372;8.990;2023-02-15T14:18:18;13.87;;;7.97;;
12110;SDS011;6119;52.372;8.990;2023-02-15T14:21:16;14.83;;;9.17;;
12110;SDS011;6119;52.372;8.990;2023-02-15T14:24:11;13.00;;;8.37;;
12110;SDS011;6119;52.372;8.990;2023-02-15T14:27:07;15.73;;;9.20;;
12110;SDS011;6119;52.372;8.990;2023-02-15T14:30:02;13.27;;;8.00;;
12110;SDS011;6119;52.372;8.990;2023-02-15T14:32:59;13.33;;;8.70;;
12110;SDS011;6119;52.372;8.990;2023-02-15T14:35:51;13.03;;;8.10;;
12110;SDS011;6119;52.372;8.990;2023-02-15T14:38:44;12.03;;;8.60;;
12110;SDS011;6119;52.372;8.990;2023-02-15T14:41:42;14.60;;;8.97;;
12110;SDS011;6119;52.372;8.990;2023-02-15T14:44:34;12.00;;;8.17;;
12110;SDS011;6119;52.372;8.990;2023-02-15T14:47:26;12.70;;;8.50;;
12110;SDS011;6119;52.372;8.990;2023-02-15T14:53:34;14.10;;;8.60;;
12110;SDS011;6119;52.372;8.990;2023-02-15T14:56:26;15.80;;;9.43;;
12110;SDS011;6119;52.372;8.990;2023-02-15T14:59:14;14.40;;;8.43;;
12110;SDS011;6119;52.372;8.990;2023-02-15T15:02:09;13.50;;;8.07;;
12110;SDS011;6119;52.372;8.990;2023-02-15T15:05:01;14.40;;;8.23;;
12110;SDS011;6119;52.372;8.990;2023-02-15T15:07:53;13.67;;;8.83;;
12110;SDS011;6119;52.372;8.990;2023-02-15T15:10:42;15.47;;;9.13;;
12110;SDS011;6119;52.372;8.990;2023-02-15T15:13:38;17.73;;;9.63;;
12110;SDS011;6119;52.372;8.990;2023-02-15T15:16:50;13.70;;;9.17;;
12110;SDS011;6119;52.372;8.990;2023-02-15T15:26:34;13.40;;;8.27;;
12110;SDS011;6119;52.372;8.990;2023-02-15T15:29:39;17.40;;;8.77;;
12110;SDS011;6119;52.372;8.990;2023-02-15T15:32:26;13.53;;;8.87;;
12110;SDS011;6119;52.372;8.990;2023-02-15T15:35:19;13.00;;;8.33;;
12110;SDS011;6119;52.372;8.990;2023-02-15T15:38:18;12.90;;;8.57;;
12110;SDS011;6119;52.372;8.990;2023-02-15T15:41:17;11.60;;;7.90;;
12110;SDS011;6119;52.372;8.990;2023-02-15T15:44:20;13.10;;;8.37;;
12110;SDS011;6119;52.372;8.990;2023-02-15T15:47:35;14.97;;;8.27;;
12110;SDS011;6119;52.372;8.990;2023-02-15T15:50:51;11.30;;;7.90;;
12110;SDS011;6119;52.372;8.990;2023-02-15T15:53:40;13.30;;;8.83;;
12110;SDS011;6119;52.372;8.990;2023-02-15T15:56:31;13.03;;;8.30;;
12110;SDS011;6119;52.372;8.990;2023-02-15T15:59:20;13.57;;;8.87;;
12110;SDS011;6119;52.372;8.990;2023-02-15T16:02:11;15.30;;;8.87;;
12110;SDS011;6119;52.372;8.990;2023-02-15T16:05:11;15.57;;;8.77;;
12110;SDS011;6119;52.372;8.990;2023-02-15T16:07:58;14.73;;;8.37;;
12110;SDS011;6119;52.372;8.990;2023-02-15T16:10:45;12.27;;;8.37;;
12110;SDS011;6119;52.372;8.990;2023-02-15T16:13:31;14.90;;;9.07;;
12110;SDS011;6119;52.372;8.990;2023-02-15T16:16:20;14.37;;;9.40;;
12110;SDS011;6119;52.372;8.990;2023-02-15T16:19:16;12.00;;;8.60;;
12110;SDS011;6119;52.372;8.990;2023-02-15T16:22:07;13.77;;;8.60;;
12110;SDS011;6119;52.372;8.990;2023-02-15T16:25:03;13.33;;;8.73;;
12110;SDS011;6119;52.372;8.990;2023-02-15T16:28:10;17.33;;;9.00;;
12110;SDS011;6119;52.372;8.990;2023-02-15T16:31:04;14.57;;;8.27;;
12110;SDS011;6119;52.372;8.990;2023-02-15T16:33:56;17.37;;;8.67;;
12110;SDS011;6119;52.372;8.990;2023-02-15T16:36:44;12.97;;;8.53;;
12110;SDS011;6119;52.372;8.990;2023-02-15T16:39:31;11.63;;;8.00;;
12110;SDS011;6119;52.372;8.990;2023-02-15T16:42:27;12.50;;;7.83;;
12110;SDS011;6119;52.372;8.990;2023-02-15T16:45:14;12.93;;;8.30;;
12110;SDS011;6119;52.372;8.990;2023-02-15T16:48:05;15.67;;;8.70;;
12110;SDS011;6119;52.372;8.990;2023-02-15T16:50:56;11.53;;;8.33;;
12110;SDS011;6119;52.372;8.990;2023-02-15T16:53:47;14.63;;;9.00;;
12110;SDS011;6119;52.372;8.990;2023-02-15T16:56:34;13.03;;;8.20;;
12110;SDS011;6119;52.372;8.990;2023-02-15T16:59:27;15.10;;;7.90;;
12110;SDS011;6119;52.372;8.990;2023-02-15T17:02:18;12.37;;;8.47;;
12110;SDS011;6119;52.372;8.990;2023-02-15T17:05:29;13.77;;;8.20;;
12110;SDS011;6119;52.372;8.990;2023-02-15T17:08:18;13.93;;;7.63;;
12110;SDS011;6119;52.372;8.990;2023-02-15T17:11:12;9.97;;;7.10;;
12110;SDS011;6119;52.372;8.990;2023-02-15T17:14:12;13.00;;;8.03;;
12110;SDS011;6119;52.372;8.990;2023-02-15T17:17:05;12.93;;;8.37;;
12110;SDS011;6119;52.372;8.990;2023-02-15T17:19:54;10.90;;;7.90;;
12110;SDS011;6119;52.372;8.990;2023-02-15T17:22:40;9.07;;;7.27;;
12110;SDS011;6119;52.372;8.990;2023-02-15T17:25:30;13.07;;;7.30;;
12110;SDS011;6119;52.372;8.990;2023-02-15T17:28:24;10.00;;;7.40;;
12110;SDS011;6119;52.372;8.990;2023-02-15T17:31:13;13.30;;;8.20;;
12110;SDS011;6119;52.372;8.990;2023-02-15T17:34:02;12.33;;;7.60;;
12110;SDS011;6119;52.372;8.990;2023-02-15T17:36:56;11.30;;;8.10;;